sensor_id;sensor_type;location;lat;lon;timestamp;temperature;humidity
75155;HTU21D;63735;44.730;37.818;2022-11-22T00:00:41;17.07;63.71
75155;HTU21D;63735;44.730;37.818;2022-11-22T00:03:07;16.94;63.96
75155;HTU21D;63735;44.730;37.818;2022-11-22T00:05:33;16.82;64.18
75155;HTU21D;63735;44.730;37.818;2022-11-22T00:07:59;16.70;64.44
75155;HTU21D;63735;44.730;37.818;2022-11-22T00:10:26;16.63;64.63
75155;HTU21D;63735;44.730;37.818;2022-11-22T00:12:53;16.60;64.72
75155;HTU21D;63735;44.730;37.818;2022-11-22T00:15:18;16.64;64.69
75155;HTU21D;63735;44.730;37.818;2022-11-22T00:17:44;16.69;64.71
75155;HTU21D;63735;44.730;37.818;2022-11-22T00:20:10;16.77;64.68
75155;HTU21D;63735;44.730;37.818;2022-11-22T00:22:36;16.78;64.71
75155;HTU21D;63735;44.730;37.818;2022-11-22T00:25:02;16.84;64.74
75155;HTU21D;63735;44.730;37.818;2022-11-22T00:27:28;16.92;64.66
75155;HTU21D;63735;44.730;37.818;2022-11-22T00:29:54;16.87;64.71
75155;HTU21D;63735;44.730;37.818;2022-11-22T00:32:20;16.81;64.79
75155;HTU21D;63735;44.730;37.818;2022-11-22T00:34:46;16.88;64.76
75155;HTU21D;63735;44.730;37.818;2022-11-22T00:37:12;17.05;64.47
75155;HTU21D;63735;44.730;37.818;2022-11-22T00:39:38;17.23;64.14
75155;HTU21D;63735;44.730;37.818;2022-11-22T00:42:04;17.35;63.88
75155;HTU21D;63735;44.730;37.818;2022-11-22T00:44:30;17.40;63.75
75155;HTU21D;63735;44.730;37.818;2022-11-22T00:46:56;17.41;63.67
75155;HTU21D;63735;44.730;37.818;2022-11-22T00:49:22;17.38;63.74
75155;HTU21D;63735;44.730;37.818;2022-11-22T00:51:47;17.41;63.65
75155;HTU21D;63735;44.730;37.818;2022-11-22T00:54:13;17.51;63.53
75155;HTU21D;63735;44.730;37.818;2022-11-22T00:56:39;17.67;63.32
75155;HTU21D;63735;44.730;37.818;2022-11-22T00:59:05;17.82;62.95
75155;HTU21D;63735;44.730;37.818;2022-11-22T01:01:31;17.93;62.71
75155;HTU21D;63735;44.730;37.818;2022-11-22T01:03:57;17.96;62.67
75155;HTU21D;63735;44.730;37.818;2022-11-22T01:06:23;17.95;62.85
75155;HTU21D;63735;44.730;37.818;2022-11-22T01:08:49;17.95;63.14
75155;HTU21D;63735;44.730;37.818;2022-11-22T01:11:17;17.96;63.38
75155;HTU21D;63735;44.730;37.818;2022-11-22T01:13:43;17.95;63.51
75155;HTU21D;63735;44.730;37.818;2022-11-22T01:16:11;17.95;64.12
75155;HTU21D;63735;44.730;37.818;2022-11-22T01:18:37;17.93;64.45
75155;HTU21D;63735;44.730;37.818;2022-11-22T01:21:04;17.90;64.80
75155;HTU21D;63735;44.730;37.818;2022-11-22T01:23:31;17.89;65.14
75155;HTU21D;63735;44.730;37.818;2022-11-22T01:25:57;17.88;65.12
75155;HTU21D;63735;44.730;37.818;2022-11-22T01:28:23;17.85;65.18
75155;HTU21D;63735;44.730;37.818;2022-11-22T01:30:49;17.82;65.52
75155;HTU21D;63735;44.730;37.818;2022-11-22T01:33:16;17.83;65.71
75155;HTU21D;63735;44.730;37.818;2022-11-22T01:35:42;17.81;65.99
75155;HTU21D;63735;44.730;37.818;2022-11-22T01:38:08;17.77;66.20
75155;HTU21D;63735;44.730;37.818;2022-11-22T01:40:34;17.70;66.31
75155;HTU21D;63735;44.730;37.818;2022-11-22T01:43:02;17.66;66.48
75155;HTU21D;63735;44.730;37.818;2022-11-22T01:50:58;17.55;67.19
75155;HTU21D;63735;44.730;37.818;2022-11-22T01:53:29;17.55;67.30
75155;HTU21D;63735;44.730;37.818;2022-11-22T01:55:58;17.54;67.43
75155;HTU21D;63735;44.730;37.818;2022-11-22T01:58:27;17.54;67.34
75155;HTU21D;63735;44.730;37.818;2022-11-22T02:00:55;17.54;67.55
75155;HTU21D;63735;44.730;37.818;2022-11-22T02:03:21;17.51;67.72
75155;HTU21D;63735;44.730;37.818;2022-11-22T02:05:48;17.48;68.04
75155;HTU21D;63735;44.730;37.818;2022-11-22T02:11:07;17.36;69.54
75155;HTU21D;63735;44.730;37.818;2022-11-22T02:13:33;17.31;69.41
75155;HTU21D;63735;44.730;37.818;2022-11-22T02:16:00;17.25;69.57
75155;HTU21D;63735;44.730;37.818;2022-11-22T02:18:27;17.24;69.94
75155;HTU21D;63735;44.730;37.818;2022-11-22T02:20:53;17.22;70.21
75155;HTU21D;63735;44.730;37.818;2022-11-22T02:26:19;17.21;70.07
75155;HTU21D;63735;44.730;37.818;2022-11-22T02:28:45;17.19;70.01
75155;HTU21D;63735;44.730;37.818;2022-11-22T02:31:35;17.18;70.10
75155;HTU21D;63735;44.730;37.818;2022-11-22T02:34:02;17.18;69.91
75155;HTU21D;63735;44.730;37.818;2022-11-22T02:36:33;17.16;69.90
75155;HTU21D;63735;44.730;37.818;2022-11-22T02:38:59;17.16;69.82
75155;HTU21D;63735;44.730;37.818;2022-11-22T02:41:26;17.15;69.78
75155;HTU21D;63735;44.730;37.818;2022-11-22T02:43:52;17.14;69.75
75155;HTU21D;63735;44.730;37.818;2022-11-22T02:46:18;17.09;69.78
75155;HTU21D;63735;44.730;37.818;2022-11-22T02:48:47;17.10;69.82
75155;HTU21D;63735;44.730;37.818;2022-11-22T02:51:15;17.13;69.73
75155;HTU21D;63735;44.730;37.818;2022-11-22T02:53:42;17.13;69.60
75155;HTU21D;63735;44.730;37.818;2022-11-22T02:56:08;17.16;69.53
75155;HTU21D;63735;44.730;37.818;2022-11-22T02:58:34;17.18;69.44
75155;HTU21D;63735;44.730;37.818;2022-11-22T03:01:01;17.17;69.41
75155;HTU21D;63735;44.730;37.818;2022-11-22T03:03:30;17.13;69.49
75155;HTU21D;63735;44.730;37.818;2022-11-22T03:05:56;17.09;69.58
75155;HTU21D;63735;44.730;37.818;2022-11-22T03:08:22;17.06;69.65
75155;HTU21D;63735;44.730;37.818;2022-11-22T03:10:48;17.05;69.74
75155;HTU21D;63735;44.730;37.818;2022-11-22T03:13:13;17.03;69.72
75155;HTU21D;63735;44.730;37.818;2022-11-22T03:15:40;17.00;69.84
75155;HTU21D;63735;44.730;37.818;2022-11-22T03:18:05;16.88;70.03
75155;HTU21D;63735;44.730;37.818;2022-11-22T03:20:32;16.79;70.20
75155;HTU21D;63735;44.730;37.818;2022-11-22T03:23:01;16.77;70.26
75155;HTU21D;63735;44.730;37.818;2022-11-22T03:25:27;16.77;70.16
75155;HTU21D;63735;44.730;37.818;2022-11-22T03:27:54;16.79;70.03
75155;HTU21D;63735;44.730;37.818;2022-11-22T03:30:20;16.85;69.97
75155;HTU21D;63735;44.730;37.818;2022-11-22T03:32:45;16.92;70.15
75155;HTU21D;63735;44.730;37.818;2022-11-22T03:35:11;17.02;70.26
75155;HTU21D;63735;44.730;37.818;2022-11-22T03:37:37;17.10;70.22
75155;HTU21D;63735;44.730;37.818;2022-11-22T03:40:04;17.16;70.13
75155;HTU21D;63735;44.730;37.818;2022-11-22T03:42:30;17.21;70.15
75155;HTU21D;63735;44.730;37.818;2022-11-22T03:44:56;17.22;70.19
75155;HTU21D;63735;44.730;37.818;2022-11-22T03:47:22;17.25;70.45
75155;HTU21D;63735;44.730;37.818;2022-11-22T03:49:48;17.26;70.71
75155;HTU21D;63735;44.730;37.818;2022-11-22T03:52:14;17.28;70.87
75155;HTU21D;63735;44.730;37.818;2022-11-22T03:54:40;17.25;71.37
75155;HTU21D;63735;44.730;37.818;2022-11-22T03:57:06;17.24;71.73
75155;HTU21D;63735;44.730;37.818;2022-11-22T03:59:32;17.24;72.03
75155;HTU21D;63735;44.730;37.818;2022-11-22T04:01:58;17.23;72.35
75155;HTU21D;63735;44.730;37.818;2022-11-22T04:04:24;17.19;73.04
75155;HTU21D;63735;44.730;37.818;2022-11-22T04:06:50;17.17;73.58
75155;HTU21D;63735;44.730;37.818;2022-11-22T04:09:15;17.13;73.66
75155;HTU21D;63735;44.730;37.818;2022-11-22T04:11:41;17.09;73.70
75155;HTU21D;63735;44.730;37.818;2022-11-22T04:14:10;17.06;73.87
75155;HTU21D;63735;44.730;37.818;2022-11-22T04:16:55;17.03;74.02
75155;HTU21D;63735;44.730;37.818;2022-11-22T04:19:21;17.02;74.25
75155;HTU21D;63735;44.730;37.818;2022-11-22T04:21:47;17.01;74.27
75155;HTU21D;63735;44.730;37.818;2022-11-22T04:24:13;16.99;74.31
75155;HTU21D;63735;44.730;37.818;2022-11-22T04:26:57;16.96;74.58
75155;HTU21D;63735;44.730;37.818;2022-11-22T04:29:23;16.94;74.83
75155;HTU21D;63735;44.730;37.818;2022-11-22T04:31:50;16.93;74.94
75155;HTU21D;63735;44.730;37.818;2022-11-22T04:34:35;16.90;75.07
75155;HTU21D;63735;44.730;37.818;2022-11-22T04:37:01;16.92;74.92
75155;HTU21D;63735;44.730;37.818;2022-11-22T04:39:28;16.95;74.82
75155;HTU21D;63735;44.730;37.818;2022-11-22T04:41:55;16.98;74.57
75155;HTU21D;63735;44.730;37.818;2022-11-22T04:44:56;16.99;74.28
75155;HTU21D;63735;44.730;37.818;2022-11-22T04:47:22;17.00;74.14
75155;HTU21D;63735;44.730;37.818;2022-11-22T04:50:07;17.00;74.02
75155;HTU21D;63735;44.730;37.818;2022-11-22T04:52:55;16.98;74.02
75155;HTU21D;63735;44.730;37.818;2022-11-22T04:55:22;16.96;74.09
75155;HTU21D;63735;44.730;37.818;2022-11-22T04:57:48;16.94;74.92
75155;HTU21D;63735;44.730;37.818;2022-11-22T05:00:14;16.94;75.81
75155;HTU21D;63735;44.730;37.818;2022-11-22T05:02:40;16.91;76.37
75155;HTU21D;63735;44.730;37.818;2022-11-22T05:05:07;16.86;76.81
75155;HTU21D;63735;44.730;37.818;2022-11-22T05:07:33;16.82;77.11
75155;HTU21D;63735;44.730;37.818;2022-11-22T05:09:59;16.81;77.34
75155;HTU21D;63735;44.730;37.818;2022-11-22T05:12:24;16.80;77.21
75155;HTU21D;63735;44.730;37.818;2022-11-22T05:14:50;16.81;77.17
75155;HTU21D;63735;44.730;37.818;2022-11-22T05:17:16;16.82;77.13
75155;HTU21D;63735;44.730;37.818;2022-11-22T05:19:42;16.84;77.07
75155;HTU21D;63735;44.730;37.818;2022-11-22T05:22:08;16.86;77.02
75155;HTU21D;63735;44.730;37.818;2022-11-22T05:24:34;16.89;77.02
75155;HTU21D;63735;44.730;37.818;2022-11-22T05:27:00;16.88;76.98
75155;HTU21D;63735;44.730;37.818;2022-11-22T05:29:26;16.88;76.95
75155;HTU21D;63735;44.730;37.818;2022-11-22T05:31:52;16.88;76.95
75155;HTU21D;63735;44.730;37.818;2022-11-22T05:34:18;16.87;76.92
75155;HTU21D;63735;44.730;37.818;2022-11-22T05:36:44;16.85;76.93
75155;HTU21D;63735;44.730;37.818;2022-11-22T05:39:10;16.87;76.90
75155;HTU21D;63735;44.730;37.818;2022-11-22T05:41:36;16.89;76.87
75155;HTU21D;63735;44.730;37.818;2022-11-22T05:44:02;16.84;76.90
75155;HTU21D;63735;44.730;37.818;2022-11-22T05:46:29;16.77;77.18
75155;HTU21D;63735;44.730;37.818;2022-11-22T05:48:56;16.77;77.39
75155;HTU21D;63735;44.730;37.818;2022-11-22T05:51:23;16.82;77.08
75155;HTU21D;63735;44.730;37.818;2022-11-22T05:53:50;16.78;77.04
75155;HTU21D;63735;44.730;37.818;2022-11-22T05:56:21;16.79;77.27
75155;HTU21D;63735;44.730;37.818;2022-11-22T05:58:47;16.79;77.27
75155;HTU21D;63735;44.730;37.818;2022-11-22T06:01:16;16.75;77.79
75155;HTU21D;63735;44.730;37.818;2022-11-22T06:03:43;16.77;77.85
75155;HTU21D;63735;44.730;37.818;2022-11-22T06:06:10;16.82;77.66
75155;HTU21D;63735;44.730;37.818;2022-11-22T06:08:38;16.89;77.47
75155;HTU21D;63735;44.730;37.818;2022-11-22T06:11:07;16.99;77.14
75155;HTU21D;63735;44.730;37.818;2022-11-22T06:13:36;17.13;76.68
75155;HTU21D;63735;44.730;37.818;2022-11-22T06:16:04;17.21;76.36
75155;HTU21D;63735;44.730;37.818;2022-11-22T06:18:30;17.30;76.28
75155;HTU21D;63735;44.730;37.818;2022-11-22T06:21:04;17.40;76.19
75155;HTU21D;63735;44.730;37.818;2022-11-22T06:23:31;17.49;76.00
75155;HTU21D;63735;44.730;37.818;2022-11-22T06:26:02;17.58;75.78
75155;HTU21D;63735;44.730;37.818;2022-11-22T06:28:30;17.62;75.60
75155;HTU21D;63735;44.730;37.818;2022-11-22T06:31:20;17.65;75.48
75155;HTU21D;63735;44.730;37.818;2022-11-22T06:33:46;17.63;75.44
75155;HTU21D;63735;44.730;37.818;2022-11-22T06:36:18;17.58;75.58
75155;HTU21D;63735;44.730;37.818;2022-11-22T06:38:44;17.56;75.65
75155;HTU21D;63735;44.730;37.818;2022-11-22T06:41:16;17.52;75.77
75155;HTU21D;63735;44.730;37.818;2022-11-22T06:43:43;17.52;75.87
75155;HTU21D;63735;44.730;37.818;2022-11-22T06:46:10;17.56;75.87
75155;HTU21D;63735;44.730;37.818;2022-11-22T06:48:37;17.61;75.80
75155;HTU21D;63735;44.730;37.818;2022-11-22T06:53:43;17.70;75.62
75155;HTU21D;63735;44.730;37.818;2022-11-22T06:56:11;17.76;75.57
75155;HTU21D;63735;44.730;37.818;2022-11-22T06:58:38;17.84;75.40
75155;HTU21D;63735;44.730;37.818;2022-11-22T07:01:06;17.93;75.28
75155;HTU21D;63735;44.730;37.818;2022-11-22T07:03:37;18.03;75.17
75155;HTU21D;63735;44.730;37.818;2022-11-22T07:06:03;18.05;75.00
75155;HTU21D;63735;44.730;37.818;2022-11-22T07:08:30;18.04;74.98
75155;HTU21D;63735;44.730;37.818;2022-11-22T07:11:03;17.99;75.10
75155;HTU21D;63735;44.730;37.818;2022-11-22T07:13:29;17.98;75.12
75155;HTU21D;63735;44.730;37.818;2022-11-22T07:15:56;17.98;75.18
75155;HTU21D;63735;44.730;37.818;2022-11-22T07:18:23;18.00;75.21
75155;HTU21D;63735;44.730;37.818;2022-11-22T07:20:49;17.98;75.25
75155;HTU21D;63735;44.730;37.818;2022-11-22T07:23:15;17.93;75.34
75155;HTU21D;63735;44.730;37.818;2022-11-22T07:25:45;17.87;75.65
75155;HTU21D;63735;44.730;37.818;2022-11-22T07:28:15;17.70;76.41
75155;HTU21D;63735;44.730;37.818;2022-11-22T07:30:41;17.58;77.15
75155;HTU21D;63735;44.730;37.818;2022-11-22T07:33:08;17.43;77.92
75155;HTU21D;63735;44.730;37.818;2022-11-22T07:35:35;17.38;78.08
75155;HTU21D;63735;44.730;37.818;2022-11-22T07:38:01;17.46;78.11
75155;HTU21D;63735;44.730;37.818;2022-11-22T07:40:27;17.53;78.21
75155;HTU21D;63735;44.730;37.818;2022-11-22T07:42:52;17.44;78.47
75155;HTU21D;63735;44.730;37.818;2022-11-22T07:45:19;17.39;78.56
75155;HTU21D;63735;44.730;37.818;2022-11-22T07:47:45;17.35;78.60
75155;HTU21D;63735;44.730;37.818;2022-11-22T07:50:11;17.29;78.72
75155;HTU21D;63735;44.730;37.818;2022-11-22T07:52:37;17.24;78.92
75155;HTU21D;63735;44.730;37.818;2022-11-22T07:55:04;17.19;78.95
75155;HTU21D;63735;44.730;37.818;2022-11-22T07:57:31;17.17;79.02
75155;HTU21D;63735;44.730;37.818;2022-11-22T07:59:57;17.13;79.03
75155;HTU21D;63735;44.730;37.818;2022-11-22T08:02:23;17.14;79.06
75155;HTU21D;63735;44.730;37.818;2022-11-22T08:04:50;17.14;79.40
75155;HTU21D;63735;44.730;37.818;2022-11-22T08:07:16;17.14;79.38
75155;HTU21D;63735;44.730;37.818;2022-11-22T08:09:42;17.14;79.27
75155;HTU21D;63735;44.730;37.818;2022-11-22T08:12:08;17.14;79.25
75155;HTU21D;63735;44.730;37.818;2022-11-22T08:14:34;17.01;79.65
75155;HTU21D;63735;44.730;37.818;2022-11-22T08:17:01;16.94;79.82
75155;HTU21D;63735;44.730;37.818;2022-11-22T08:19:27;16.94;79.96
75155;HTU21D;63735;44.730;37.818;2022-11-22T08:21:53;16.92;80.14
75155;HTU21D;63735;44.730;37.818;2022-11-22T08:24:18;16.90;80.23
75155;HTU21D;63735;44.730;37.818;2022-11-22T08:26:45;16.90;80.30
75155;HTU21D;63735;44.730;37.818;2022-11-22T08:29:11;16.92;80.20
75155;HTU21D;63735;44.730;37.818;2022-11-22T08:31:38;16.99;80.11
75155;HTU21D;63735;44.730;37.818;2022-11-22T08:34:04;17.03;80.11
75155;HTU21D;63735;44.730;37.818;2022-11-22T08:36:31;17.01;80.59
75155;HTU21D;63735;44.730;37.818;2022-11-22T08:38:57;16.99;80.60
75155;HTU21D;63735;44.730;37.818;2022-11-22T08:41:24;16.98;80.64
75155;HTU21D;63735;44.730;37.818;2022-11-22T08:43:51;16.98;80.53
75155;HTU21D;63735;44.730;37.818;2022-11-22T08:46:18;16.95;80.45
75155;HTU21D;63735;44.730;37.818;2022-11-22T08:48:44;16.98;80.42
75155;HTU21D;63735;44.730;37.818;2022-11-22T08:51:12;17.00;80.31
75155;HTU21D;63735;44.730;37.818;2022-11-22T08:53:40;17.02;80.22
75155;HTU21D;63735;44.730;37.818;2022-11-22T08:56:09;17.02;80.04
75155;HTU21D;63735;44.730;37.818;2022-11-22T08:58:36;17.02;79.85
75155;HTU21D;63735;44.730;37.818;2022-11-22T09:01:03;17.05;79.56
75155;HTU21D;63735;44.730;37.818;2022-11-22T09:03:30;17.03;79.06
75155;HTU21D;63735;44.730;37.818;2022-11-22T09:06:07;17.01;78.94
75155;HTU21D;63735;44.730;37.818;2022-11-22T09:08:34;17.08;78.66
75155;HTU21D;63735;44.730;37.818;2022-11-22T09:11:02;17.08;78.23
75155;HTU21D;63735;44.730;37.818;2022-11-22T09:13:29;17.09;77.87
75155;HTU21D;63735;44.730;37.818;2022-11-22T09:16:07;17.06;77.53
75155;HTU21D;63735;44.730;37.818;2022-11-22T09:18:33;17.04;77.09
75155;HTU21D;63735;44.730;37.818;2022-11-22T09:21:00;17.03;77.01
75155;HTU21D;63735;44.730;37.818;2022-11-22T09:23:26;17.06;76.88
75155;HTU21D;63735;44.730;37.818;2022-11-22T09:26:05;17.05;76.68
75155;HTU21D;63735;44.730;37.818;2022-11-22T09:28:32;17.07;76.53
75155;HTU21D;63735;44.730;37.818;2022-11-22T09:31:20;17.06;76.34
75155;HTU21D;63735;44.730;37.818;2022-11-22T09:33:46;17.07;76.25
75155;HTU21D;63735;44.730;37.818;2022-11-22T09:36:17;17.06;76.21
75155;HTU21D;63735;44.730;37.818;2022-11-22T09:38:44;17.01;76.23
75155;HTU21D;63735;44.730;37.818;2022-11-22T09:49:52;16.80;76.68
75155;HTU21D;63735;44.730;37.818;2022-11-22T09:52:33;16.80;76.73
75155;HTU21D;63735;44.730;37.818;2022-11-22T09:55:05;16.78;76.72
75155;HTU21D;63735;44.730;37.818;2022-11-22T09:57:42;16.76;76.74
75155;HTU21D;63735;44.730;37.818;2022-11-22T10:00:29;16.76;76.85
75155;HTU21D;63735;44.730;37.818;2022-11-22T10:03:18;16.78;76.85
75155;HTU21D;63735;44.730;37.818;2022-11-22T10:05:53;16.75;76.98
75155;HTU21D;63735;44.730;37.818;2022-11-22T10:11:09;16.66;77.35
75155;HTU21D;63735;44.730;37.818;2022-11-22T10:13:41;16.62;77.64
75155;HTU21D;63735;44.730;37.818;2022-11-22T10:21:18;16.59;77.92
75155;HTU21D;63735;44.730;37.818;2022-11-22T10:23:44;16.56;78.36
75155;HTU21D;63735;44.730;37.818;2022-11-22T10:26:32;16.45;78.01
75155;HTU21D;63735;44.730;37.818;2022-11-22T10:37:40;16.11;77.39
75155;HTU21D;63735;44.730;37.818;2022-11-22T10:40:22;16.01;77.37
75155;HTU21D;63735;44.730;37.818;2022-11-22T10:43:11;15.96;77.35
75155;HTU21D;63735;44.730;37.818;2022-11-22T10:45:45;15.89;77.36
75155;HTU21D;63735;44.730;37.818;2022-11-22T10:54:01;15.87;77.39
75155;HTU21D;63735;44.730;37.818;2022-11-22T10:56:45;15.89;77.30
75155;HTU21D;63735;44.730;37.818;2022-11-22T11:04:59;15.71;77.84
75155;HTU21D;63735;44.730;37.818;2022-11-22T11:07:30;15.62;78.41
75155;HTU21D;63735;44.730;37.818;2022-11-22T11:10:03;15.54;78.85
75155;HTU21D;63735;44.730;37.818;2022-11-22T11:12:40;15.48;79.16
75155;HTU21D;63735;44.730;37.818;2022-11-22T11:15:19;15.43;79.55
75155;HTU21D;63735;44.730;37.818;2022-11-22T11:17:50;15.40;79.72
75155;HTU21D;63735;44.730;37.818;2022-11-22T11:20:28;15.39;79.67
75155;HTU21D;63735;44.730;37.818;2022-11-22T11:22:56;15.38;79.72
75155;HTU21D;63735;44.730;37.818;2022-11-22T11:25:33;15.37;79.95
75155;HTU21D;63735;44.730;37.818;2022-11-22T11:28:06;15.33;80.36
75155;HTU21D;63735;44.730;37.818;2022-11-22T11:33:21;15.33;80.04
75155;HTU21D;63735;44.730;37.818;2022-11-22T11:35:51;15.30;80.24
75155;HTU21D;63735;44.730;37.818;2022-11-22T11:38:26;15.27;80.27
75155;HTU21D;63735;44.730;37.818;2022-11-22T11:40:53;15.27;80.36
75155;HTU21D;63735;44.730;37.818;2022-11-22T11:43:21;15.27;80.33
75155;HTU21D;63735;44.730;37.818;2022-11-22T11:45:47;15.27;80.30
75155;HTU21D;63735;44.730;37.818;2022-11-22T11:48:34;15.24;80.72
75155;HTU21D;63735;44.730;37.818;2022-11-22T11:53:38;15.06;82.04
75155;HTU21D;63735;44.730;37.818;2022-11-22T11:56:47;14.99;82.15
75155;HTU21D;63735;44.730;37.818;2022-11-22T11:59:17;14.93;82.21
75155;HTU21D;63735;44.730;37.818;2022-11-22T12:01:53;14.93;82.04
75155;HTU21D;63735;44.730;37.818;2022-11-22T12:04:24;14.91;81.99
75155;HTU21D;63735;44.730;37.818;2022-11-22T12:07:15;14.86;82.07
75155;HTU21D;63735;44.730;37.818;2022-11-22T12:09:46;14.88;82.11
75155;HTU21D;63735;44.730;37.818;2022-11-22T12:12:39;14.87;82.30
75155;HTU21D;63735;44.730;37.818;2022-11-22T12:15:18;14.89;82.35
75155;HTU21D;63735;44.730;37.818;2022-11-22T12:20:45;14.87;83.19
75155;HTU21D;63735;44.730;37.818;2022-11-22T12:23:29;14.84;83.43
75155;HTU21D;63735;44.730;37.818;2022-11-22T12:25:58;14.80;83.86
75155;HTU21D;63735;44.730;37.818;2022-11-22T12:28:26;14.75;84.03
75155;HTU21D;63735;44.730;37.818;2022-11-22T12:30:58;14.68;84.26
75155;HTU21D;63735;44.730;37.818;2022-11-22T12:33:38;14.65;84.47
75155;HTU21D;63735;44.730;37.818;2022-11-22T12:36:12;14.60;84.64
75155;HTU21D;63735;44.730;37.818;2022-11-22T12:38:41;14.55;84.67
75155;HTU21D;63735;44.730;37.818;2022-11-22T12:41:11;14.50;84.61
75155;HTU21D;63735;44.730;37.818;2022-11-22T12:43:53;14.51;84.64
75155;HTU21D;63735;44.730;37.818;2022-11-22T12:46:23;14.54;84.55
75155;HTU21D;63735;44.730;37.818;2022-11-22T12:49:56;14.56;84.49
75155;HTU21D;63735;44.730;37.818;2022-11-22T13:00:17;12.70;86.58
75155;HTU21D;63735;44.730;37.818;2022-11-22T13:03:04;12.41;87.44
75155;HTU21D;63735;44.730;37.818;2022-11-22T13:05:53;12.27;87.76
75155;HTU21D;63735;44.730;37.818;2022-11-22T13:08:46;12.20;87.79
75155;HTU21D;63735;44.730;37.818;2022-11-22T13:11:20;12.25;87.58
75155;HTU21D;63735;44.730;37.818;2022-11-22T13:13:51;12.23;87.45
75155;HTU21D;63735;44.730;37.818;2022-11-22T13:16:17;12.22;87.36
75155;HTU21D;63735;44.730;37.818;2022-11-22T13:19:12;12.22;87.27
75155;HTU21D;63735;44.730;37.818;2022-11-22T13:25:20;12.04;87.26
75155;HTU21D;63735;44.730;37.818;2022-11-22T13:27:39;12.02;87.31
75155;HTU21D;63735;44.730;37.818;2022-11-22T13:30:20;11.99;87.35
75155;HTU21D;63735;44.730;37.818;2022-11-22T13:32:56;11.99;87.30
75155;HTU21D;63735;44.730;37.818;2022-11-22T13:38:04;12.05;87.08
75155;HTU21D;63735;44.730;37.818;2022-11-22T13:40:46;11.99;87.16
75155;HTU21D;63735;44.730;37.818;2022-11-22T13:48:13;12.08;87.73
75155;HTU21D;63735;44.730;37.818;2022-11-22T13:53:35;12.26;88.01
75155;HTU21D;63735;44.730;37.818;2022-11-22T13:59:03;12.37;88.24
75155;HTU21D;63735;44.730;37.818;2022-11-22T14:01:30;12.45;88.32
75155;HTU21D;63735;44.730;37.818;2022-11-22T14:07:00;12.55;88.77
75155;HTU21D;63735;44.730;37.818;2022-11-22T14:15:11;12.70;89.31
75155;HTU21D;63735;44.730;37.818;2022-11-22T14:29:01;12.70;90.18
75155;HTU21D;63735;44.730;37.818;2022-11-22T14:31:34;12.79;90.16
75155;HTU21D;63735;44.730;37.818;2022-11-22T14:34:20;12.84;90.16
75155;HTU21D;63735;44.730;37.818;2022-11-22T14:50:04;12.90;90.92
75155;HTU21D;63735;44.730;37.818;2022-11-22T14:52:33;12.95;90.99
75155;HTU21D;63735;44.730;37.818;2022-11-22T14:55:04;12.97;91.15
75155;HTU21D;63735;44.730;37.818;2022-11-22T14:57:35;13.02;91.18
75155;HTU21D;63735;44.730;37.818;2022-11-22T15:15:18;13.36;91.15
75155;HTU21D;63735;44.730;37.818;2022-11-22T15:17:15;13.44;91.16
75155;HTU21D;63735;44.730;37.818;2022-11-22T15:19:44;13.49;91.15
75155;HTU21D;63735;44.730;37.818;2022-11-22T15:22:11;13.58;91.13
75155;HTU21D;63735;44.730;37.818;2022-11-22T15:24:39;13.60;91.05
75155;HTU21D;63735;44.730;37.818;2022-11-22T15:27:26;13.51;91.06
75155;HTU21D;63735;44.730;37.818;2022-11-22T15:30:18;13.44;91.29
75155;HTU21D;63735;44.730;37.818;2022-11-22T15:32:49;13.39;91.43
75155;HTU21D;63735;44.730;37.818;2022-11-22T15:35:20;13.35;91.59
75155;HTU21D;63735;44.730;37.818;2022-11-22T15:38:08;13.29;91.69
75155;HTU21D;63735;44.730;37.818;2022-11-22T15:40:39;13.23;91.54
75155;HTU21D;63735;44.730;37.818;2022-11-22T15:43:10;13.19;91.26
75155;HTU21D;63735;44.730;37.818;2022-11-22T15:45:40;13.20;90.76
75155;HTU21D;63735;44.730;37.818;2022-11-22T15:48:19;13.24;90.15
75155;HTU21D;63735;44.730;37.818;2022-11-22T15:53:35;13.43;88.27
75155;HTU21D;63735;44.730;37.818;2022-11-22T15:56:22;13.49;87.44
75155;HTU21D;63735;44.730;37.818;2022-11-22T15:58:54;13.59;86.70
75155;HTU21D;63735;44.730;37.818;2022-11-22T16:01:21;13.51;85.82
75155;HTU21D;63735;44.730;37.818;2022-11-22T16:03:53;13.22;86.00
75155;HTU21D;63735;44.730;37.818;2022-11-22T16:06:27;13.06;86.20
75155;HTU21D;63735;44.730;37.818;2022-11-22T16:09:00;12.95;86.29
75155;HTU21D;63735;44.730;37.818;2022-11-22T16:11:32;12.90;86.15
75155;HTU21D;63735;44.730;37.818;2022-11-22T16:13:59;12.89;85.93
75155;HTU21D;63735;44.730;37.818;2022-11-22T16:16:33;12.94;85.73
75155;HTU21D;63735;44.730;37.818;2022-11-22T16:21:58;13.00;84.69
75155;HTU21D;63735;44.730;37.818;2022-11-22T16:24:31;12.96;84.44
75155;HTU21D;63735;44.730;37.818;2022-11-22T16:26:59;12.94;84.29
75155;HTU21D;63735;44.730;37.818;2022-11-22T16:29:27;12.91;84.20
75155;HTU21D;63735;44.730;37.818;2022-11-22T16:34:28;12.94;84.23
75155;HTU21D;63735;44.730;37.818;2022-11-22T16:36:54;12.96;83.86
75155;HTU21D;63735;44.730;37.818;2022-11-22T16:39:20;12.99;83.58
75155;HTU21D;63735;44.730;37.818;2022-11-22T16:41:46;12.97;83.32
75155;HTU21D;63735;44.730;37.818;2022-11-22T16:44:13;12.97;83.14
75155;HTU21D;63735;44.730;37.818;2022-11-22T16:46:41;12.95;82.86
75155;HTU21D;63735;44.730;37.818;2022-11-22T16:49:21;12.94;82.64
75155;HTU21D;63735;44.730;37.818;2022-11-22T16:51:48;12.90;82.42
75155;HTU21D;63735;44.730;37.818;2022-11-22T16:54:18;12.86;82.23
75155;HTU21D;63735;44.730;37.818;2022-11-22T16:56:45;12.79;82.19
75155;HTU21D;63735;44.730;37.818;2022-11-22T16:59:11;12.74;82.23
75155;HTU21D;63735;44.730;37.818;2022-11-22T17:01:39;12.69;82.17
75155;HTU21D;63735;44.730;37.818;2022-11-22T17:04:07;12.63;82.23
75155;HTU21D;63735;44.730;37.818;2022-11-22T17:06:38;12.55;82.26
75155;HTU21D;63735;44.730;37.818;2022-11-22T17:09:05;12.41;82.49
75155;HTU21D;63735;44.730;37.818;2022-11-22T17:11:31;12.26;82.78
75155;HTU21D;63735;44.730;37.818;2022-11-22T17:13:58;12.15;82.99
75155;HTU21D;63735;44.730;37.818;2022-11-22T17:16:24;12.06;83.13
75155;HTU21D;63735;44.730;37.818;2022-11-22T17:18:50;11.96;83.23
75155;HTU21D;63735;44.730;37.818;2022-11-22T17:21:27;11.85;83.29
75155;HTU21D;63735;44.730;37.818;2022-11-22T17:23:55;11.76;83.39
75155;HTU21D;63735;44.730;37.818;2022-11-22T17:26:22;11.64;83.29
75155;HTU21D;63735;44.730;37.818;2022-11-22T17:28:48;11.53;83.44
75155;HTU21D;63735;44.730;37.818;2022-11-22T17:31:16;11.43;83.61
75155;HTU21D;63735;44.730;37.818;2022-11-22T17:33:42;11.37;83.61
75155;HTU21D;63735;44.730;37.818;2022-11-22T17:36:34;11.30;83.65
75155;HTU21D;63735;44.730;37.818;2022-11-22T17:39:03;11.27;83.68